Time;durP1;ratioP1;P1;durP2;ratioP2;P2;SDS_P1;SDS_P2;PMS_P1;PMS_P2;Temp;Humidity;BMP_temperature;BMP_pressure;BME280_temperature;BME280_humidity;BME280_pressure;Samples;Min_cycle;Max_cycle;Signal;HPM_P1;HPM_P2
2021/06/26 00:01:20;;;;;;;34.53;22.10;;;;;;;;;;740463;187;913987;-65
2021/06/26 00:03:46;;;;;;;42.75;23.65;;;;;;;;;;739819;187;914511;-65
2021/06/26 00:06:12;;;;;;;36.70;21.93;;;;;;;;;;736103;187;913887;-65
2021/06/26 00:08:38;;;;;;;39.30;20.60;;;;;;;;;;735570;187;923765;-65
2021/06/26 00:11:03;;;;;;;39.40;19.50;;;;;;;;;;739479;187;921140;-64
2021/06/26 00:13:29;;;;;;;42.60;20.83;;;;;;;;;;736246;187;916035;-64
2021/06/26 00:15:55;;;;;;;38.10;22.57;;;;;;;;;;735893;188;914661;-65
2021/06/26 00:18:21;;;;;;;41.97;22.90;;;;;;;;;;739182;187;915567;-64
2021/06/26 00:20:47;;;;;;;40.27;24.57;;;;;;;;;;730377;191;927470;-65
2021/06/26 00:23:13;;;;;;;40.07;24.20;;;;;;;;;;735337;188;919420;-64
2021/06/26 00:25:38;;;;;;;43.00;25.73;;;;;;;;;;739393;186;913730;-64
2021/06/26 00:28:04;;;;;;;41.57;24.97;;;;;;;;;;741616;187;918912;-64
2021/06/26 00:30:30;;;;;;;44.50;27.87;;;;;;;;;;738139;186;919623;-64
2021/06/26 00:32:56;;;;;;;49.95;28.38;;;;;;;;;;747541;186;947802;-64
2021/06/26 00:35:22;;;;;;;44.47;27.80;;;;;;;;;;751716;186;919310;-64
2021/06/26 00:37:48;;;;;;;51.57;31.70;;;;;;;;;;736783;187;920933;-64
2021/06/26 00:40:13;;;;;;;47.80;28.08;;;;;;;;;;746785;187;920887;-64
2021/06/26 00:42:39;;;;;;;48.87;31.50;;;;;;;;;;738417;187;921173;-65
2021/06/26 00:45:06;;;;;;;54.93;29.67;;;;;;;;;;734714;186;914829;-64
2021/06/26 00:47:32;;;;;;;52.10;30.42;;;;;;;;;;733356;188;918922;-65
2021/06/26 00:49:58;;;;;;;47.83;29.07;;;;;;;;;;717196;191;917918;-63
2021/06/26 00:52:23;;;;;;;50.30;29.40;;;;;;;;;;752401;186;919306;-64
2021/06/26 00:54:49;;;;;;;46.33;27.97;;;;;;;;;;735969;188;919529;-64
2021/06/26 00:57:15;;;;;;;55.17;28.62;;;;;;;;;;739738;187;919688;-64
2021/06/26 00:59:41;;;;;;;46.93;30.40;;;;;;;;;;743524;187;919504;-64
2021/06/26 01:02:08;;;;;;;45.27;31.90;;;;;;;;;;734149;187;1028092;-64
2021/06/26 01:04:33;;;;;;;43.57;30.87;;;;;;;;;;736788;188;920678;-64
2021/06/26 01:06:58;;;;;;;60.60;32.73;;;;;;;;;;740958;187;917849;-65
2021/06/26 01:09:25;;;;;;;50.20;31.43;;;;;;;;;;739553;186;917012;-64
2021/06/26 01:11:57;;;;;;;49.97;29.17;;;;;;;;;;735767;188;916011;-64
2021/06/26 01:14:16;;;;;;;44.83;29.50;;;;;;;;;;713162;191;919603;-63
2021/06/26 01:16:42;;;;;;;47.60;30.33;;;;;;;;;;729876;191;913023;-64
2021/06/26 01:19:08;;;;;;;47.70;29.33;;;;;;;;;;720646;190;915055;-64
2021/06/26 01:21:33;;;;;;;43.43;28.80;;;;;;;;;;734869;187;916914;-64
2021/06/26 01:23:59;;;;;;;41.23;28.33;;;;;;;;;;718376;193;918654;-64
2021/06/26 01:26:28;;;;;;;41.47;28.03;;;;;;;;;;726087;190;926555;-64
2021/06/26 01:28:51;;;;;;;41.72;28.50;;;;;;;;;;734870;187;911474;-65
2021/06/26 01:31:17;;;;;;;38.03;26.63;;;;;;;;;;739743;187;915631;-63
2021/06/26 01:33:43;;;;;;;42.97;27.03;;;;;;;;;;732943;187;920125;-65
2021/06/26 01:36:09;;;;;;;41.00;27.67;;;;;;;;;;737138;187;919601;-64
2021/06/26 01:38:35;;;;;;;39.23;27.07;;;;;;;;;;721987;192;914525;-64
2021/06/26 01:41:01;;;;;;;34.47;26.67;;;;;;;;;;746057;185;943005;-64
2021/06/26 01:43:26;;;;;;;38.53;26.33;;;;;;;;;;737735;187;920025;-64
2021/06/26 01:45:52;;;;;;;34.13;25.70;;;;;;;;;;739309;187;919485;-64
2021/06/26 01:48:18;;;;;;;33.77;26.47;;;;;;;;;;738387;186;918924;-68
2021/06/26 01:50:44;;;;;;;38.63;25.60;;;;;;;;;;744551;187;919357;-64
2021/06/26 01:53:10;;;;;;;35.33;24.67;;;;;;;;;;737894;186;919854;-64
2021/06/26 01:55:36;;;;;;;32.80;24.97;;;;;;;;;;740067;187;919172;-64
2021/06/26 01:58:01;;;;;;;29.97;22.77;;;;;;;;;;736381;187;919274;-64
2021/06/26 02:00:27;;;;;;;29.83;22.73;;;;;;;;;;715678;191;918759;-64
2021/06/26 02:02:53;;;;;;;25.17;20.93;;;;;;;;;;749603;186;919153;-64
2021/06/26 02:05:22;;;;;;;33.50;22.73;;;;;;;;;;737648;188;919673;-65
2021/06/26 02:07:45;;;;;;;31.93;22.30;;;;;;;;;;736577;187;1021612;-65
2021/06/26 02:10:11;;;;;;;30.80;23.03;;;;;;;;;;735380;188;920082;-62
2021/06/26 02:12:37;;;;;;;27.33;22.67;;;;;;;;;;745460;187;919630;-63
2021/06/26 02:15:04;;;;;;;30.60;23.20;;;;;;;;;;742545;186;919171;-64
2021/06/26 02:17:29;;;;;;;31.10;23.27;;;;;;;;;;742160;187;919918;-65
2021/06/26 02:19:55;;;;;;;30.47;22.10;;;;;;;;;;742174;187;920017;-64
2021/06/26 02:22:21;;;;;;;37.33;22.30;;;;;;;;;;736645;187;918856;-64
2021/06/26 02:24:47;;;;;;;26.67;21.90;;;;;;;;;;732389;188;918567;-64
2021/06/26 02:27:13;;;;;;;28.60;21.50;;;;;;;;;;740178;187;918906;-64
2021/06/26 02:29:39;;;;;;;30.70;19.33;;;;;;;;;;735512;188;923447;-64
2021/06/26 02:32:05;;;;;;;36.40;22.20;;;;;;;;;;737024;187;919233;-64
2021/06/26 02:34:31;;;;;;;29.00;22.33;;;;;;;;;;738693;187;940547;-64
2021/06/26 02:36:57;;;;;;;30.07;20.43;;;;;;;;;;738335;187;919581;-65
2021/06/26 02:39:22;;;;;;;30.50;23.50;;;;;;;;;;733808;188;919095;-64
2021/06/26 02:41:48;;;;;;;38.97;23.77;;;;;;;;;;733089;187;919581;-64
2021/06/26 02:44:14;;;;;;;36.77;25.50;;;;;;;;;;729481;188;918659;-64
2021/06/26 02:46:40;;;;;;;31.43;23.80;;;;;;;;;;732410;188;920691;-66
2021/06/26 02:49:06;;;;;;;39.57;25.77;;;;;;;;;;743239;186;919761;-64
2021/06/26 02:51:32;;;;;;;36.00;25.43;;;;;;;;;;740321;186;919141;-65
2021/06/26 02:53:57;;;;;;;34.87;25.87;;;;;;;;;;741843;187;919840;-65
2021/06/26 02:56:23;;;;;;;31.35;25.23;;;;;;;;;;738421;187;912993;-65
2021/06/26 02:58:49;;;;;;;36.80;26.10;;;;;;;;;;739525;188;919336;-65
2021/06/26 03:01:15;;;;;;;34.30;24.10;;;;;;;;;;724554;188;919611;-64
2021/06/26 03:03:41;;;;;;;29.57;23.70;;;;;;;;;;740854;187;919445;-65
2021/06/26 03:06:07;;;;;;;35.13;25.87;;;;;;;;;;737322;187;919253;-65
2021/06/26 03:08:33;;;;;;;32.03;24.70;;;;;;;;;;738708;188;919201;-65
2021/06/26 03:10:58;;;;;;;30.57;22.67;;;;;;;;;;733821;187;919754;-65
2021/06/26 03:13:24;;;;;;;28.90;23.33;;;;;;;;;;738211;187;919378;-65
2021/06/26 03:15:50;;;;;;;28.97;22.50;;;;;;;;;;742489;187;920102;-65
2021/06/26 03:18:16;;;;;;;36.50;24.03;;;;;;;;;;738642;187;919185;-65
2021/06/26 03:20:42;;;;;;;32.33;23.77;;;;;;;;;;736686;188;920027;-65
2021/06/26 03:23:08;;;;;;;40.23;24.53;;;;;;;;;;739135;188;919417;-64
2021/06/26 03:25:33;;;;;;;28.47;22.83;;;;;;;;;;739376;187;919031;-64
2021/06/26 03:27:59;;;;;;;33.30;25.40;;;;;;;;;;719806;192;921974;-65
2021/06/26 03:30:25;;;;;;;37.37;25.37;;;;;;;;;;743489;187;927176;-64
2021/06/26 03:32:51;;;;;;;29.73;22.90;;;;;;;;;;738388;187;919449;-64
2021/06/26 03:35:17;;;;;;;33.53;24.73;;;;;;;;;;739832;187;919315;-64
2021/06/26 03:37:43;;;;;;;32.70;23.53;;;;;;;;;;738144;187;1021347;-64
2021/06/26 03:40:09;;;;;;;32.17;23.67;;;;;;;;;;742830;187;919637;-65
2021/06/26 03:42:35;;;;;;;44.90;27.80;;;;;;;;;;736698;188;944604;-65
2021/06/26 03:45:01;;;;;;;35.73;24.97;;;;;;;;;;735521;187;919030;-64
2021/06/26 03:47:28;;;;;;;37.57;26.03;;;;;;;;;;743682;187;919591;-64
2021/06/26 03:49:53;;;;;;;40.47;27.10;;;;;;;;;;735762;188;919314;-64
2021/06/26 03:52:18;;;;;;;36.80;26.23;;;;;;;;;;732908;187;919584;-66
2021/06/26 03:54:44;;;;;;;40.00;25.97;;;;;;;;;;747522;186;918736;-64
2021/06/26 03:57:10;;;;;;;42.10;26.37;;;;;;;;;;737206;186;919264;-64
2021/06/26 03:59:36;;;;;;;39.70;26.83;;;;;;;;;;736564;187;919276;-66
2021/06/26 04:02:06;;;;;;;37.33;24.37;;;;;;;;;;734151;187;919506;-64
2021/06/26 04:04:28;;;;;;;46.10;28.98;;;;;;;;;;760846;183;919749;-65
2021/06/26 04:06:53;;;;;;;42.43;26.97;;;;;;;;;;744489;185;920326;-66
2021/06/26 04:09:19;;;;;;;37.78;27.92;;;;;;;;;;740521;187;918970;-65
2021/06/26 04:11:45;;;;;;;40.70;27.57;;;;;;;;;;739419;188;1016428;-65
2021/06/26 04:14:11;;;;;;;43.67;29.63;;;;;;;;;;736038;187;919324;-66
2021/06/26 04:16:37;;;;;;;43.00;30.07;;;;;;;;;;734143;187;919965;-66
2021/06/26 04:19:03;;;;;;;35.97;28.90;;;;;;;;;;742718;186;919338;-67
2021/06/26 04:21:28;;;;;;;38.75;28.02;;;;;;;;;;737081;187;919625;-66
2021/06/26 04:23:54;;;;;;;35.53;27.10;;;;;;;;;;733597;187;919567;-66
2021/06/26 04:26:20;;;;;;;35.27;28.07;;;;;;;;;;731917;190;919403;-66
2021/06/26 04:28:46;;;;;;;34.90;26.53;;;;;;;;;;736442;187;918806;-66
2021/06/26 04:31:12;;;;;;;33.77;26.83;;;;;;;;;;717771;191;919467;-65
2021/06/26 04:33:38;;;;;;;38.60;27.53;;;;;;;;;;733936;187;920367;-65
2021/06/26 04:36:05;;;;;;;37.57;28.47;;;;;;;;;;745114;187;918843;-67
2021/06/26 04:38:30;;;;;;;34.00;26.57;;;;;;;;;;732898;187;923392;-67
2021/06/26 04:40:55;;;;;;;37.23;25.60;;;;;;;;;;734111;187;919217;-66
2021/06/26 04:43:21;;;;;;;32.77;25.20;;;;;;;;;;739804;187;919132;-66
2021/06/26 04:45:47;;;;;;;38.47;25.77;;;;;;;;;;734817;188;1070235;-66
2021/06/26 04:48:13;;;;;;;29.17;25.65;;;;;;;;;;734797;187;919506;-66
2021/06/26 04:50:39;;;;;;;42.03;28.87;;;;;;;;;;738930;187;1021079;-66
2021/06/26 04:53:05;;;;;;;38.77;24.90;;;;;;;;;;729164;188;919193;-66
2021/06/26 04:55:31;;;;;;;38.37;25.77;;;;;;;;;;733594;187;918743;-66
2021/06/26 04:57:56;;;;;;;34.03;27.13;;;;;;;;;;720893;191;920931;-66
2021/06/26 05:00:22;;;;;;;32.57;25.97;;;;;;;;;;719597;194;918759;-68
2021/06/26 05:02:48;;;;;;;36.67;26.13;;;;;;;;;;716661;194;920283;-67
2021/06/26 05:05:14;;;;;;;37.50;27.10;;;;;;;;;;736888;187;906726;-66
2021/06/26 05:07:40;;;;;;;35.83;25.00;;;;;;;;;;740311;187;920593;-66
2021/06/26 05:10:06;;;;;;;32.63;25.50;;;;;;;;;;722059;191;920409;-67
2021/06/26 05:12:32;;;;;;;32.17;24.33;;;;;;;;;;731580;187;917332;-67
2021/06/26 05:14:58;;;;;;;30.00;25.40;;;;;;;;;;730926;188;919585;-67
2021/06/26 05:17:24;;;;;;;36.50;24.73;;;;;;;;;;739529;187;915756;-67
2021/06/26 05:19:50;;;;;;;32.83;24.47;;;;;;;;;;739177;187;919287;-67
2021/06/26 05:22:16;;;;;;;31.12;24.23;;;;;;;;;;740272;186;921326;-65
2021/06/26 05:24:42;;;;;;;38.47;25.23;;;;;;;;;;734580;190;918794;-67
2021/06/26 05:27:08;;;;;;;29.10;23.20;;;;;;;;;;732323;187;919297;-67
2021/06/26 05:29:39;;;;;;;27.77;22.20;;;;;;;;;;741014;187;915767;-67
2021/06/26 05:32:00;;;;;;;31.53;21.73;;;;;;;;;;741228;188;1018689;-68
2021/06/26 05:34:26;;;;;;;29.17;23.07;;;;;;;;;;737693;187;916400;-67
2021/06/26 05:36:51;;;;;;;83.37;56.27;;;;;;;;;;734793;188;916174;-69
2021/06/26 05:39:17;;;;;;;26.47;20.17;;;;;;;;;;739153;187;916179;-68
2021/06/26 05:41:43;;;;;;;33.87;22.57;;;;;;;;;;737189;188;916831;-67
2021/06/26 05:44:09;;;;;;;29.40;20.70;;;;;;;;;;738199;187;916072;-68
2021/06/26 05:46:35;;;;;;;23.30;20.83;;;;;;;;;;744073;187;916056;-69
2021/06/26 05:49:01;;;;;;;24.13;21.53;;;;;;;;;;740053;187;916115;-68
2021/06/26 05:51:26;;;;;;;22.60;19.27;;;;;;;;;;736566;187;918963;-68
2021/06/26 05:53:52;;;;;;;25.83;21.23;;;;;;;;;;736044;188;931037;-67
2021/06/26 05:56:18;;;;;;;18.80;16.83;;;;;;;;;;743082;186;1021970;-68
2021/06/26 05:58:44;;;;;;;23.90;15.97;;;;;;;;;;741794;186;919553;-69
2021/06/26 06:01:11;;;;;;;21.53;17.20;;;;;;;;;;736458;187;919382;-67
2021/06/26 06:03:36;;;;;;;27.60;17.77;;;;;;;;;;747413;186;959064;-68
2021/06/26 06:06:02;;;;;;;19.67;17.30;;;;;;;;;;736262;188;919441;-68
2021/06/26 06:08:28;;;;;;;19.90;17.77;;;;;;;;;;736869;187;919774;-67
2021/06/26 06:10:54;;;;;;;19.90;16.40;;;;;;;;;;743306;188;920291;-67
2021/06/26 06:13:20;;;;;;;22.33;16.40;;;;;;;;;;743877;186;919434;-68
2021/06/26 06:15:46;;;;;;;21.63;17.67;;;;;;;;;;738014;186;928248;-67
2021/06/26 06:18:11;;;;;;;23.10;17.10;;;;;;;;;;735730;188;918644;-67
2021/06/26 06:20:37;;;;;;;27.83;18.63;;;;;;;;;;746703;185;919715;-68
2021/06/26 06:23:03;;;;;;;21.57;19.37;;;;;;;;;;743542;186;919739;-70
2021/06/26 06:25:29;;;;;;;18.67;16.50;;;;;;;;;;739330;187;1022171;-68
2021/06/26 06:27:55;;;;;;;21.47;17.07;;;;;;;;;;734144;190;918787;-68
2021/06/26 06:30:21;;;;;;;20.23;16.87;;;;;;;;;;726030;192;936697;-66
2021/06/26 06:32:47;;;;;;;27.93;17.93;;;;;;;;;;745266;186;919071;-68
2021/06/26 06:35:14;;;;;;;21.30;17.87;;;;;;;;;;742267;187;918954;-67
2021/06/26 06:37:38;;;;;;;21.53;17.70;;;;;;;;;;734147;187;918042;-69
2021/06/26 06:40:06;;;;;;;28.57;17.47;;;;;;;;;;734922;187;920105;-66
2021/06/26 06:42:32;;;;;;;20.97;14.90;;;;;;;;;;741349;187;920501;-67
2021/06/26 06:44:58;;;;;;;22.90;16.37;;;;;;;;;;731006;187;919154;-69
2021/06/26 06:47:23;;;;;;;18.50;15.03;;;;;;;;;;734457;187;920538;-67
2021/06/26 06:49:49;;;;;;;21.80;14.53;;;;;;;;;;722906;191;923187;-67
2021/06/26 06:52:15;;;;;;;19.83;16.10;;;;;;;;;;732486;186;940673;-68
2021/06/26 06:54:41;;;;;;;18.37;14.38;;;;;;;;;;734152;186;918806;-66
2021/06/26 06:57:07;;;;;;;27.03;13.77;;;;;;;;;;733656;187;1020462;-67
2021/06/26 06:59:33;;;;;;;23.00;14.30;;;;;;;;;;738960;190;920060;-67
2021/06/26 07:01:59;;;;;;;16.43;12.90;;;;;;;;;;736876;188;1007203;-68
2021/06/26 07:04:25;;;;;;;18.67;16.53;;;;;;;;;;735913;188;923146;-67
2021/06/26 07:06:50;;;;;;;24.67;18.52;;;;;;;;;;740424;188;921071;-66
2021/06/26 07:09:16;;;;;;;17.60;13.97;;;;;;;;;;733494;187;918969;-67
2021/06/26 07:11:44;;;;;;;20.07;15.60;;;;;;;;;;731898;188;626709;-68
2021/06/26 07:14:10;;;;;;;25.50;16.00;;;;;;;;;;735613;188;950099;-67
2021/06/26 07:16:36;;;;;;;22.97;17.33;;;;;;;;;;746204;186;918345;-66
2021/06/26 07:19:02;;;;;;;23.27;15.57;;;;;;;;;;739186;187;919783;-66
2021/06/26 07:21:28;;;;;;;17.58;14.77;;;;;;;;;;737068;187;919447;-66
2021/06/26 07:23:53;;;;;;;22.07;16.47;;;;;;;;;;737081;187;918338;-68
2021/06/26 07:26:19;;;;;;;24.07;15.37;;;;;;;;;;742954;186;918399;-69
2021/06/26 07:28:45;;;;;;;19.27;15.60;;;;;;;;;;741865;186;927799;-69
2021/06/26 07:31:11;;;;;;;21.37;16.67;;;;;;;;;;745504;186;918965;-66
2021/06/26 07:33:37;;;;;;;21.13;14.63;;;;;;;;;;734165;187;920496;-66
2021/06/26 07:36:03;;;;;;;23.00;16.77;;;;;;;;;;726702;187;919799;-69
2021/06/26 07:38:29;;;;;;;19.60;17.00;;;;;;;;;;735112;187;920569;-67
2021/06/26 07:40:55;;;;;;;18.70;16.60;;;;;;;;;;737330;189;919152;-67
2021/06/26 07:43:21;;;;;;;23.57;17.27;;;;;;;;;;740244;186;941501;-68
2021/06/26 07:45:46;;;;;;;20.60;15.33;;;;;;;;;;737972;188;917791;-67
2021/06/26 07:48:12;;;;;;;22.10;15.83;;;;;;;;;;741492;187;919624;-69
2021/06/26 07:50:38;;;;;;;24.40;15.57;;;;;;;;;;733988;187;917173;-69
2021/06/26 07:53:04;;;;;;;28.63;19.23;;;;;;;;;;732967;187;926010;-70
2021/06/26 07:55:31;;;;;;;28.70;19.93;;;;;;;;;;729758;191;916678;-69
2021/06/26 07:57:56;;;;;;;23.33;17.27;;;;;;;;;;732494;189;920512;-71
2021/06/26 08:00:22;;;;;;;25.00;19.10;;;;;;;;;;736118;188;911043;-69
2021/06/26 08:02:47;;;;;;;24.90;20.73;;;;;;;;;;737819;187;918002;-67
2021/06/26 08:05:13;;;;;;;22.13;19.67;;;;;;;;;;739739;187;921445;-69
2021/06/26 08:07:39;;;;;;;30.97;23.60;;;;;;;;;;735915;187;919279;-69
2021/06/26 08:10:05;;;;;;;33.27;25.87;;;;;;;;;;739169;187;919667;-68
2021/06/26 08:12:32;;;;;;;29.27;23.40;;;;;;;;;;738721;189;919066;-67
2021/06/26 08:14:58;;;;;;;21.77;16.50;;;;;;;;;;731999;188;919823;-66
2021/06/26 08:17:23;;;;;;;17.57;14.97;;;;;;;;;;736190;187;918094;-67
2021/06/26 08:19:49;;;;;;;15.23;13.17;;;;;;;;;;739650;187;918742;-67
2021/06/26 08:22:15;;;;;;;17.03;13.60;;;;;;;;;;732395;187;918638;-66
2021/06/26 08:24:42;;;;;;;15.80;12.90;;;;;;;;;;735049;187;918980;-66
2021/06/26 08:27:07;;;;;;;14.27;12.70;;;;;;;;;;741784;187;1221941;-67
2021/06/26 08:29:33;;;;;;;14.83;13.20;;;;;;;;;;738920;187;914898;-66
2021/06/26 08:31:59;;;;;;;16.73;13.37;;;;;;;;;;743065;186;915630;-68
2021/06/26 08:34:25;;;;;;;14.57;13.07;;;;;;;;;;732389;187;915528;-65
2021/06/26 08:36:51;;;;;;;14.13;12.63;;;;;;;;;;743308;187;912401;-66
2021/06/26 08:39:19;;;;;;;16.07;12.60;;;;;;;;;;734024;187;912571;-66
2021/06/26 08:41:45;;;;;;;16.37;13.90;;;;;;;;;;737415;187;879695;-68
2021/06/26 08:44:09;;;;;;;16.60;12.30;;;;;;;;;;733154;190;629477;-69
2021/06/26 08:46:35;;;;;;;13.33;12.03;;;;;;;;;;740615;186;916620;-66
2021/06/26 08:49:00;;;;;;;14.47;10.87;;;;;;;;;;737736;187;916670;-66
2021/06/26 08:51:26;;;;;;;16.97;10.57;;;;;;;;;;747088;187;915700;-69
2021/06/26 08:53:52;;;;;;;11.87;9.87;;;;;;;;;;745952;187;914868;-69
2021/06/26 08:56:18;;;;;;;18.50;10.70;;;;;;;;;;740635;187;1143447;-70
2021/06/26 08:58:44;;;;;;;11.60;9.47;;;;;;;;;;739856;187;919479;-67
2021/06/26 09:01:10;;;;;;;11.27;8.53;;;;;;;;;;758203;184;918616;-68
2021/06/26 09:03:36;;;;;;;11.27;8.37;;;;;;;;;;745367;186;919370;-67
2021/06/26 09:06:01;;;;;;;9.60;8.60;;;;;;;;;;733408;188;918725;-68
2021/06/26 09:08:27;;;;;;;9.67;8.30;;;;;;;;;;741456;187;919404;-68
2021/06/26 09:10:53;;;;;;;8.53;7.63;;;;;;;;;;739866;187;919620;-72
2021/06/26 09:13:22;;;;;;;9.90;8.40;;;;;;;;;;736717;187;918925;-67
2021/06/26 09:15:45;;;;;;;10.30;8.70;;;;;;;;;;744999;187;919314;-68
2021/06/26 09:18:11;;;;;;;9.10;7.60;;;;;;;;;;738723;187;920379;-70
2021/06/26 09:20:39;;;;;;;11.18;9.00;;;;;;;;;;740630;187;918896;-66
2021/06/26 09:23:04;;;;;;;9.17;7.73;;;;;;;;;;743314;188;919199;-67
2021/06/26 09:25:30;;;;;;;12.43;9.27;;;;;;;;;;734140;187;918034;-69
2021/06/26 09:27:56;;;;;;;10.10;9.10;;;;;;;;;;734859;187;919630;-67
2021/06/26 09:30:28;;;;;;;11.30;7.80;;;;;;;;;;740064;187;919514;-67
2021/06/26 09:32:54;;;;;;;9.03;7.30;;;;;;;;;;739540;187;919180;-70
2021/06/26 09:35:19;;;;;;;9.13;7.43;;;;;;;;;;738037;188;919407;-69
2021/06/26 09:37:45;;;;;;;9.23;8.27;;;;;;;;;;738795;187;918603;-68
2021/06/26 09:40:12;;;;;;;14.87;6.30;;;;;;;;;;749420;187;923407;-68
2021/06/26 09:42:39;;;;;;;10.53;7.03;;;;;;;;;;754783;185;918208;-69
2021/06/26 09:45:04;;;;;;;7.15;5.93;;;;;;;;;;741001;186;919621;-67
2021/06/26 09:47:30;;;;;;;9.10;7.40;;;;;;;;;;734863;187;1021403;-69
2021/06/26 09:50:02;;;;;;;7.17;5.80;;;;;;;;;;739292;187;918647;-68
2021/06/26 09:52:31;;;;;;;6.23;5.07;;;;;;;;;;738402;186;919342;-68
2021/06/26 09:54:54;;;;;;;8.70;5.73;;;;;;;;;;732846;188;919530;-69
2021/06/26 09:57:20;;;;;;;10.35;6.65;;;;;;;;;;722068;192;919238;-69
2021/06/26 09:59:48;;;;;;;7.27;6.07;;;;;;;;;;752399;185;918975;-71
2021/06/26 10:02:12;;;;;;;7.63;6.10;;;;;;;;;;744265;186;919588;-68
2021/06/26 10:04:38;;;;;;;7.40;6.53;;;;;;;;;;737212;187;919016;-68
2021/06/26 10:07:05;;;;;;;6.23;5.03;;;;;;;;;;739877;187;917671;-68
2021/06/26 10:09:31;;;;;;;8.53;6.53;;;;;;;;;;748177;186;918880;-69
2021/06/26 10:11:56;;;;;;;7.78;6.15;;;;;;;;;;739244;187;1020480;-68
2021/06/26 10:14:22;;;;;;;6.30;5.70;;;;;;;;;;740270;189;919483;-68
2021/06/26 10:16:48;;;;;;;7.80;6.40;;;;;;;;;;736603;188;919358;-74
2021/06/26 10:19:15;;;;;;;8.37;6.33;;;;;;;;;;735937;188;918972;-71
2021/06/26 10:21:42;;;;;;;11.23;7.43;;;;;;;;;;740278;188;920084;-69
2021/06/26 10:24:08;;;;;;;8.43;6.30;;;;;;;;;;742331;186;915665;-68
2021/06/26 10:26:34;;;;;;;6.40;5.77;;;;;;;;;;740169;186;915841;-69
2021/06/26 10:29:00;;;;;;;8.07;6.13;;;;;;;;;;736930;184;921448;-70
2021/06/26 10:31:32;;;;;;;7.90;5.18;;;;;;;;;;739184;188;916179;-68
2021/06/26 10:34:16;;;;;;;8.83;6.03;;;;;;;;;;735969;187;916251;-68
2021/06/26 10:36:45;;;;;;;8.33;5.97;;;;;;;;;;737400;187;919305;-70
2021/06/26 10:39:13;;;;;;;6.80;5.87;;;;;;;;;;735402;187;919291;-74
2021/06/26 10:41:39;;;;;;;7.33;5.50;;;;;;;;;;737597;187;919641;-70
2021/06/26 10:44:05;;;;;;;11.63;6.00;;;;;;;;;;742391;187;918854;-68
2021/06/26 10:46:30;;;;;;;6.03;5.23;;;;;;;;;;735994;187;920123;-70
2021/06/26 10:49:01;;;;;;;6.63;5.93;;;;;;;;;;738497;188;921162;-70
2021/06/26 10:51:31;;;;;;;6.73;5.93;;;;;;;;;;743433;188;919862;-69
2021/06/26 10:53:57;;;;;;;6.53;4.83;;;;;;;;;;740989;187;921238;-71
2021/06/26 10:56:22;;;;;;;7.03;5.10;;;;;;;;;;733316;187;919116;-74
2021/06/26 10:58:48;;;;;;;6.10;5.17;;;;;;;;;;738895;187;921143;-69
2021/06/26 11:01:16;;;;;;;5.27;4.73;;;;;;;;;;739866;188;919907;-71
2021/06/26 11:03:42;;;;;;;35.07;5.70;;;;;;;;;;739123;188;919474;-70
2021/06/26 11:06:13;;;;;;;8.10;5.43;;;;;;;;;;736497;188;919184;-70
2021/06/26 11:08:39;;;;;;;7.77;5.30;;;;;;;;;;735346;187;919298;-72
2021/06/26 11:11:05;;;;;;;7.57;5.30;;;;;;;;;;739457;189;921190;-70
2021/06/26 11:13:31;;;;;;;6.43;4.90;;;;;;;;;;738103;187;934936;-70
2021/06/26 11:16:02;;;;;;;6.03;4.20;;;;;;;;;;736061;187;919141;-72
2021/06/26 11:18:28;;;;;;;6.23;5.17;;;;;;;;;;741512;186;918593;-73
2021/06/26 11:20:54;;;;;;;6.17;4.83;;;;;;;;;;737811;186;918644;-71
2021/06/26 11:23:20;;;;;;;6.17;4.33;;;;;;;;;;746664;186;918840;-71
2021/06/26 11:25:46;;;;;;;6.80;5.20;;;;;;;;;;735320;187;1551668;-70
2021/06/26 11:28:12;;;;;;;5.60;4.93;;;;;;;;;;752861;186;920872;-71
2021/06/26 11:30:38;;;;;;;8.77;4.70;;;;;;;;;;737752;187;919977;-69
2021/06/26 11:33:03;;;;;;;7.10;5.47;;;;;;;;;;746655;187;1121599;-69
2021/06/26 11:35:30;;;;;;;5.80;4.90;;;;;;;;;;744529;187;918992;-70
2021/06/26 11:37:56;;;;;;;9.17;6.80;;;;;;;;;;737452;188;919261;-70
2021/06/26 11:40:22;;;;;;;8.23;6.12;;;;;;;;;;736461;188;1023081;-69
2021/06/26 11:42:58;;;;;;;8.87;5.93;;;;;;;;;;742196;187;918599;-70
2021/06/26 11:45:25;;;;;;;8.40;5.80;;;;;;;;;;751184;185;920318;-72
2021/06/26 11:48:06;;;;;;;7.40;6.63;;;;;;;;;;736690;186;915927;-69
2021/06/26 11:50:32;;;;;;;6.57;4.87;;;;;;;;;;746439;185;916575;-72
2021/06/26 11:53:04;;;;;;;8.43;5.03;;;;;;;;;;746240;186;915873;-71
2021/06/26 11:55:29;;;;;;;9.23;5.20;;;;;;;;;;749593;187;915172;-71
2021/06/26 11:57:55;;;;;;;5.97;5.20;;;;;;;;;;738062;188;916263;-71
2021/06/26 12:00:21;;;;;;;6.10;5.33;;;;;;;;;;735485;187;915363;-71
2021/06/26 12:02:47;;;;;;;5.70;5.07;;;;;;;;;;729028;187;1891210;-72
2021/06/26 12:05:19;;;;;;;8.77;5.50;;;;;;;;;;739217;187;920123;-71
2021/06/26 12:07:43;;;;;;;6.43;5.53;;;;;;;;;;736655;187;920548;-72
2021/06/26 12:10:10;;;;;;;8.03;6.60;;;;;;;;;;737491;188;914639;-70
2021/06/26 12:12:37;;;;;;;6.53;5.80;;;;;;;;;;741660;188;916136;-73
2021/06/26 12:15:02;;;;;;;6.70;5.93;;;;;;;;;;737657;187;928481;-72
2021/06/26 12:17:28;;;;;;;9.20;6.20;;;;;;;;;;737215;187;621453;-73
2021/06/26 12:19:59;;;;;;;7.83;6.30;;;;;;;;;;727064;187;913909;-75
2021/06/26 12:22:27;;;;;;;6.43;5.83;;;;;;;;;;743784;186;713854;-74
2021/06/26 12:24:51;;;;;;;6.30;5.43;;;;;;;;;;747528;185;770833;-72
2021/06/26 12:27:18;;;;;;;7.40;5.07;;;;;;;;;;739777;187;883954;-73
2021/06/26 12:29:44;;;;;;;5.47;4.90;;;;;;;;;;746753;187;816514;-74
2021/06/26 12:32:11;;;;;;;6.70;5.80;;;;;;;;;;736797;187;924333;-74
2021/06/26 12:34:42;;;;;;;5.93;4.93;;;;;;;;;;744168;187;919361;-77
2021/06/26 12:37:08;;;;;;;5.70;4.70;;;;;;;;;;740723;187;921749;-72
2021/06/26 12:39:35;;;;;;;7.60;5.73;;;;;;;;;;751287;187;918579;-69
2021/06/26 12:42:00;;;;;;;7.10;5.00;;;;;;;;;;737493;187;817584;-73
2021/06/26 12:44:26;;;;;;;6.73;5.40;;;;;;;;;;731104;188;918894;-74
2021/06/26 12:46:51;;;;;;;6.90;4.87;;;;;;;;;;736005;189;918592;-73
2021/06/26 12:49:21;;;;;;;6.00;5.03;;;;;;;;;;739726;187;918785;-76
2021/06/26 12:51:47;;;;;;;7.83;5.53;;;;;;;;;;737569;188;920197;-72
2021/06/26 12:54:13;;;;;;;8.60;5.50;;;;;;;;;;737725;188;917986;-73
2021/06/26 12:56:40;;;;;;;6.00;5.33;;;;;;;;;;740664;187;918512;-75
2021/06/26 12:59:04;;;;;;;9.87;5.40;;;;;;;;;;739353;187;917985;-72
2021/06/26 13:01:33;;;;;;;9.17;5.10;;;;;;;;;;736250;187;919042;-72
2021/06/26 13:03:59;;;;;;;10.37;5.53;;;;;;;;;;729598;192;918056;-72
2021/06/26 13:06:25;;;;;;;8.40;5.87;;;;;;;;;;734124;188;866062;-73
2021/06/26 13:08:51;;;;;;;7.35;5.70;;;;;;;;;;737015;187;886729;-74
2021/06/26 13:11:16;;;;;;;5.37;4.87;;;;;;;;;;727746;190;919370;-72
2021/06/26 13:13:43;;;;;;;8.50;6.50;;;;;;;;;;745423;188;1021177;-72
2021/06/26 13:16:08;;;;;;;5.60;5.00;;;;;;;;;;747903;184;995863;-72
2021/06/26 13:18:34;;;;;;;6.93;5.10;;;;;;;;;;737565;187;1021451;-74
2021/06/26 13:21:00;;;;;;;6.00;5.27;;;;;;;;;;723428;192;918796;-72
2021/06/26 13:23:26;;;;;;;5.73;5.13;;;;;;;;;;738701;187;817102;-72
2021/06/26 13:25:51;;;;;;;6.90;6.30;;;;;;;;;;738039;188;917865;-73
2021/06/26 13:28:17;;;;;;;7.87;6.10;;;;;;;;;;740388;188;918879;-75
2021/06/26 13:30:43;;;;;;;8.20;6.17;;;;;;;;;;736730;187;816298;-75
2021/06/26 13:33:09;;;;;;;7.03;5.43;;;;;;;;;;745737;187;819678;-75
2021/06/26 13:35:35;;;;;;;8.37;6.90;;;;;;;;;;747762;186;815850;-75
2021/06/26 13:38:01;;;;;;;7.10;6.43;;;;;;;;;;735680;187;919110;-76
2021/06/26 13:40:26;;;;;;;7.10;6.40;;;;;;;;;;739176;187;867057;-77
2021/06/26 13:42:52;;;;;;;8.50;7.30;;;;;;;;;;734890;186;918311;-74
2021/06/26 13:45:18;;;;;;;8.73;7.43;;;;;;;;;;742220;187;816672;-75
2021/06/26 13:47:44;;;;;;;10.00;6.70;;;;;;;;;;738440;187;929753;-75
2021/06/26 13:50:10;;;;;;;7.37;6.15;;;;;;;;;;739476;187;919085;-74
2021/06/26 13:52:36;;;;;;;7.73;6.30;;;;;;;;;;739873;187;919147;-72
2021/06/26 13:55:02;;;;;;;9.33;7.17;;;;;;;;;;734144;187;817241;-74
2021/06/26 13:57:28;;;;;;;10.03;6.53;;;;;;;;;;734441;188;917902;-73
2021/06/26 13:59:53;;;;;;;10.03;8.87;;;;;;;;;;742415;187;917578;-73
2021/06/26 14:02:19;;;;;;;9.07;8.17;;;;;;;;;;739941;187;817177;-71
2021/06/26 14:04:45;;;;;;;8.17;7.37;;;;;;;;;;720590;187;920254;-71